sensor_id;sensor_type;location;lat;lon;timestamp;P1;durP1;ratioP1;P2;durP2;ratioP2
59147;SDS011;44930;52.878;6.168;2022-08-19T00:00:12;6.63;;;5.47;;
59147;SDS011;44930;52.878;6.168;2022-08-19T00:02:39;7.10;;;4.32;;
59147;SDS011;44930;52.878;6.168;2022-08-19T00:05:06;7.13;;;4.97;;
59147;SDS011;44930;52.878;6.168;2022-08-19T00:07:32;7.65;;;5.30;;
59147;SDS011;44930;52.878;6.168;2022-08-19T00:09:57;6.90;;;5.43;;
59147;SDS011;44930;52.878;6.168;2022-08-19T00:12:23;5.85;;;4.53;;
59147;SDS011;44930;52.878;6.168;2022-08-19T00:14:49;4.97;;;4.10;;
59147;SDS011;44930;52.878;6.168;2022-08-19T00:17:15;7.03;;;4.85;;
59147;SDS011;44930;52.878;6.168;2022-08-19T00:19:40;7.13;;;4.82;;
59147;SDS011;44930;52.878;6.168;2022-08-19T00:22:06;9.45;;;5.88;;
59147;SDS011;44930;52.878;6.168;2022-08-19T00:24:34;6.78;;;5.40;;
59147;SDS011;44930;52.878;6.168;2022-08-19T00:27:00;7.65;;;5.50;;
59147;SDS011;44930;52.878;6.168;2022-08-19T00:29:27;4.13;;;3.42;;
59147;SDS011;44930;52.878;6.168;2022-08-19T00:31:52;4.47;;;3.20;;
59147;SDS011;44930;52.878;6.168;2022-08-19T00:34:21;3.95;;;2.88;;
59147;SDS011;44930;52.878;6.168;2022-08-19T00:36:47;7.15;;;4.35;;
59147;SDS011;44930;52.878;6.168;2022-08-19T00:39:14;6.90;;;4.30;;
59147;SDS011;44930;52.878;6.168;2022-08-19T00:41:41;8.38;;;4.63;;
59147;SDS011;44930;52.878;6.168;2022-08-19T00:44:16;6.82;;;5.20;;
59147;SDS011;44930;52.878;6.168;2022-08-19T00:46:47;5.18;;;4.68;;
59147;SDS011;44930;52.878;6.168;2022-08-19T00:49:36;6.35;;;4.93;;
59147;SDS011;44930;52.878;6.168;2022-08-19T00:52:09;8.48;;;5.63;;
59147;SDS011;44930;52.878;6.168;2022-08-19T00:54:38;8.10;;;5.85;;
59147;SDS011;44930;52.878;6.168;2022-08-19T00:57:06;6.65;;;5.70;;
59147;SDS011;44930;52.878;6.168;2022-08-19T00:59:39;4.15;;;3.75;;
59147;SDS011;44930;52.878;6.168;2022-08-19T01:02:06;3.78;;;3.05;;
59147;SDS011;44930;52.878;6.168;2022-08-19T01:04:32;4.80;;;4.28;;
59147;SDS011;44930;52.878;6.168;2022-08-19T01:06:58;3.83;;;3.42;;
59147;SDS011;44930;52.878;6.168;2022-08-19T01:09:24;4.05;;;3.65;;
59147;SDS011;44930;52.878;6.168;2022-08-19T01:11:50;5.00;;;4.07;;
59147;SDS011;44930;52.878;6.168;2022-08-19T01:14:16;5.10;;;4.00;;
59147;SDS011;44930;52.878;6.168;2022-08-19T01:16:43;8.63;;;5.35;;
59147;SDS011;44930;52.878;6.168;2022-08-19T01:19:19;5.10;;;4.60;;
59147;SDS011;44930;52.878;6.168;2022-08-19T01:21:55;4.53;;;3.80;;
59147;SDS011;44930;52.878;6.168;2022-08-19T01:24:28;6.90;;;4.72;;
59147;SDS011;44930;52.878;6.168;2022-08-19T01:26:54;5.00;;;4.45;;
59147;SDS011;44930;52.878;6.168;2022-08-19T01:29:19;5.43;;;3.65;;
59147;SDS011;44930;52.878;6.168;2022-08-19T01:31:45;5.72;;;3.20;;
59147;SDS011;44930;52.878;6.168;2022-08-19T01:34:10;5.10;;;3.15;;
59147;SDS011;44930;52.878;6.168;2022-08-19T01:36:38;4.15;;;3.33;;
59147;SDS011;44930;52.878;6.168;2022-08-19T01:39:08;4.65;;;3.53;;
59147;SDS011;44930;52.878;6.168;2022-08-19T01:41:35;7.47;;;3.28;;
59147;SDS011;44930;52.878;6.168;2022-08-19T01:44:00;4.90;;;3.20;;
59147;SDS011;44930;52.878;6.168;2022-08-19T01:46:28;3.75;;;3.42;;
59147;SDS011;44930;52.878;6.168;2022-08-19T01:48:55;2.60;;;1.88;;
59147;SDS011;44930;52.878;6.168;2022-08-19T01:51:21;3.85;;;3.45;;
59147;SDS011;44930;52.878;6.168;2022-08-19T01:53:47;4.07;;;3.42;;
59147;SDS011;44930;52.878;6.168;2022-08-19T01:56:14;4.82;;;4.07;;
59147;SDS011;44930;52.878;6.168;2022-08-19T01:58:41;7.25;;;5.45;;
59147;SDS011;44930;52.878;6.168;2022-08-19T02:01:11;6.45;;;5.07;;
59147;SDS011;44930;52.878;6.168;2022-08-19T02:03:37;5.78;;;4.75;;
59147;SDS011;44930;52.878;6.168;2022-08-19T02:06:03;6.25;;;5.60;;
59147;SDS011;44930;52.878;6.168;2022-08-19T02:08:30;6.57;;;5.22;;
59147;SDS011;44930;52.878;6.168;2022-08-19T02:10:58;9.05;;;6.40;;
59147;SDS011;44930;52.878;6.168;2022-08-19T02:13:24;9.43;;;6.10;;
59147;SDS011;44930;52.878;6.168;2022-08-19T02:15:50;8.65;;;6.43;;
59147;SDS011;44930;52.878;6.168;2022-08-19T02:18:16;10.93;;;7.38;;
59147;SDS011;44930;52.878;6.168;2022-08-19T02:20:42;9.30;;;7.40;;
59147;SDS011;44930;52.878;6.168;2022-08-19T02:23:09;8.38;;;7.47;;
59147;SDS011;44930;52.878;6.168;2022-08-19T02:25:36;10.00;;;8.40;;
59147;SDS011;44930;52.878;6.168;2022-08-19T02:28:02;11.55;;;7.65;;
59147;SDS011;44930;52.878;6.168;2022-08-19T02:30:28;10.18;;;8.10;;
59147;SDS011;44930;52.878;6.168;2022-08-19T02:32:53;9.80;;;8.80;;
59147;SDS011;44930;52.878;6.168;2022-08-19T02:35:19;10.00;;;8.15;;
59147;SDS011;44930;52.878;6.168;2022-08-19T02:37:45;11.68;;;9.43;;
59147;SDS011;44930;52.878;6.168;2022-08-19T02:40:30;10.77;;;9.68;;
59147;SDS011;44930;52.878;6.168;2022-08-19T02:42:59;10.55;;;8.88;;
59147;SDS011;44930;52.878;6.168;2022-08-19T02:45:26;10.23;;;8.35;;
59147;SDS011;44930;52.878;6.168;2022-08-19T02:47:52;10.60;;;7.38;;
59147;SDS011;44930;52.878;6.168;2022-08-19T02:50:18;9.02;;;8.13;;
59147;SDS011;44930;52.878;6.168;2022-08-19T02:52:44;12.20;;;8.45;;
59147;SDS011;44930;52.878;6.168;2022-08-19T02:55:10;12.05;;;8.98;;
59147;SDS011;44930;52.878;6.168;2022-08-19T02:57:35;10.60;;;9.13;;
59147;SDS011;44930;52.878;6.168;2022-08-19T03:00:03;10.85;;;9.50;;
59147;SDS011;44930;52.878;6.168;2022-08-19T03:02:32;15.15;;;10.00;;
59147;SDS011;44930;52.878;6.168;2022-08-19T03:04:57;12.48;;;10.05;;
59147;SDS011;44930;52.878;6.168;2022-08-19T03:07:23;10.32;;;9.23;;
59147;SDS011;44930;52.878;6.168;2022-08-19T03:09:48;9.20;;;7.97;;
59147;SDS011;44930;52.878;6.168;2022-08-19T03:12:14;7.10;;;6.22;;
59147;SDS011;44930;52.878;6.168;2022-08-19T03:14:39;6.00;;;4.90;;
59147;SDS011;44930;52.878;6.168;2022-08-19T03:17:05;6.80;;;6.15;;
59147;SDS011;44930;52.878;6.168;2022-08-19T03:19:30;7.30;;;6.07;;
59147;SDS011;44930;52.878;6.168;2022-08-19T03:21:57;7.00;;;6.13;;
59147;SDS011;44930;52.878;6.168;2022-08-19T03:24:23;8.65;;;6.28;;
59147;SDS011;44930;52.878;6.168;2022-08-19T03:26:51;8.50;;;7.00;;
59147;SDS011;44930;52.878;6.168;2022-08-19T03:29:22;10.60;;;8.48;;
59147;SDS011;44930;52.878;6.168;2022-08-19T03:31:49;9.75;;;8.52;;
59147;SDS011;44930;52.878;6.168;2022-08-19T03:34:23;11.52;;;9.13;;
59147;SDS011;44930;52.878;6.168;2022-08-19T03:36:54;13.32;;;10.38;;
59147;SDS011;44930;52.878;6.168;2022-08-19T03:39:21;12.05;;;9.52;;
59147;SDS011;44930;52.878;6.168;2022-08-19T03:41:47;11.38;;;9.23;;
59147;SDS011;44930;52.878;6.168;2022-08-19T03:44:16;12.20;;;9.68;;
59147;SDS011;44930;52.878;6.168;2022-08-19T03:46:52;10.02;;;9.02;;
59147;SDS011;44930;52.878;6.168;2022-08-19T03:49:21;11.13;;;9.20;;
59147;SDS011;44930;52.878;6.168;2022-08-19T03:51:49;8.90;;;7.53;;
59147;SDS011;44930;52.878;6.168;2022-08-19T03:54:16;11.00;;;7.65;;
59147;SDS011;44930;52.878;6.168;2022-08-19T03:56:45;11.25;;;8.82;;
59147;SDS011;44930;52.878;6.168;2022-08-19T03:59:15;8.90;;;7.03;;
59147;SDS011;44930;52.878;6.168;2022-08-19T04:01:43;8.40;;;7.43;;
59147;SDS011;44930;52.878;6.168;2022-08-19T04:04:09;11.00;;;8.13;;
59147;SDS011;44930;52.878;6.168;2022-08-19T04:06:36;5.22;;;4.53;;
59147;SDS011;44930;52.878;6.168;2022-08-19T04:09:04;2.97;;;2.42;;
59147;SDS011;44930;52.878;6.168;2022-08-19T04:11:33;3.03;;;2.53;;
59147;SDS011;44930;52.878;6.168;2022-08-19T04:14:00;7.25;;;5.13;;
59147;SDS011;44930;52.878;6.168;2022-08-19T04:16:27;10.88;;;8.27;;
59147;SDS011;44930;52.878;6.168;2022-08-19T04:18:56;9.07;;;8.18;;
59147;SDS011;44930;52.878;6.168;2022-08-19T04:21:24;11.55;;;10.18;;
59147;SDS011;44930;52.878;6.168;2022-08-19T04:23:52;12.93;;;8.25;;
59147;SDS011;44930;52.878;6.168;2022-08-19T04:26:23;4.82;;;3.25;;
59147;SDS011;44930;52.878;6.168;2022-08-19T04:28:51;4.35;;;3.47;;
59147;SDS011;44930;52.878;6.168;2022-08-19T04:31:18;5.65;;;4.70;;
59147;SDS011;44930;52.878;6.168;2022-08-19T04:33:51;6.82;;;6.05;;
59147;SDS011;44930;52.878;6.168;2022-08-19T04:36:28;13.27;;;9.90;;
59147;SDS011;44930;52.878;6.168;2022-08-19T04:38:56;14.55;;;11.27;;
59147;SDS011;44930;52.878;6.168;2022-08-19T04:41:23;15.45;;;12.57;;
59147;SDS011;44930;52.878;6.168;2022-08-19T04:44:09;15.60;;;13.15;;
59147;SDS011;44930;52.878;6.168;2022-08-19T04:46:35;14.68;;;12.30;;
59147;SDS011;44930;52.878;6.168;2022-08-19T04:49:02;16.13;;;13.25;;
59147;SDS011;44930;52.878;6.168;2022-08-19T04:51:30;18.15;;;13.45;;
59147;SDS011;44930;52.878;6.168;2022-08-19T04:53:57;18.35;;;13.10;;
59147;SDS011;44930;52.878;6.168;2022-08-19T04:56:24;15.15;;;12.82;;
59147;SDS011;44930;52.878;6.168;2022-08-19T04:58:51;18.75;;;13.93;;
59147;SDS011;44930;52.878;6.168;2022-08-19T05:01:19;15.45;;;12.65;;
59147;SDS011;44930;52.878;6.168;2022-08-19T05:03:47;13.98;;;10.65;;
59147;SDS011;44930;52.878;6.168;2022-08-19T05:06:14;11.60;;;9.48;;
59147;SDS011;44930;52.878;6.168;2022-08-19T05:08:41;10.77;;;8.85;;
59147;SDS011;44930;52.878;6.168;2022-08-19T05:13:43;12.13;;;10.75;;
59147;SDS011;44930;52.878;6.168;2022-08-19T05:16:10;10.63;;;9.52;;
59147;SDS011;44930;52.878;6.168;2022-08-19T05:18:38;14.32;;;11.60;;
59147;SDS011;44930;52.878;6.168;2022-08-19T05:21:24;15.20;;;12.05;;
59147;SDS011;44930;52.878;6.168;2022-08-19T05:24:09;15.45;;;13.13;;
59147;SDS011;44930;52.878;6.168;2022-08-19T05:26:41;18.77;;;13.10;;
59147;SDS011;44930;52.878;6.168;2022-08-19T05:29:11;18.63;;;13.57;;
59147;SDS011;44930;52.878;6.168;2022-08-19T05:31:37;16.95;;;14.77;;
59147;SDS011;44930;52.878;6.168;2022-08-19T05:34:03;18.02;;;14.90;;
59147;SDS011;44930;52.878;6.168;2022-08-19T05:36:33;19.17;;;14.82;;
59147;SDS011;44930;52.878;6.168;2022-08-19T05:39:05;18.40;;;14.55;;
59147;SDS011;44930;52.878;6.168;2022-08-19T05:41:31;19.15;;;14.45;;
59147;SDS011;44930;52.878;6.168;2022-08-19T05:43:57;18.33;;;15.20;;
59147;SDS011;44930;52.878;6.168;2022-08-19T05:46:25;21.50;;;16.27;;
59147;SDS011;44930;52.878;6.168;2022-08-19T05:48:51;20.65;;;16.35;;
59147;SDS011;44930;52.878;6.168;2022-08-19T05:51:16;24.20;;;17.27;;
59147;SDS011;44930;52.878;6.168;2022-08-19T05:53:42;20.25;;;16.73;;
59147;SDS011;44930;52.878;6.168;2022-08-19T05:56:11;21.48;;;15.63;;
59147;SDS011;44930;52.878;6.168;2022-08-19T05:58:39;22.48;;;16.88;;
59147;SDS011;44930;52.878;6.168;2022-08-19T06:01:09;24.02;;;18.15;;
59147;SDS011;44930;52.878;6.168;2022-08-19T06:03:36;21.45;;;16.90;;
59147;SDS011;44930;52.878;6.168;2022-08-19T06:06:03;26.30;;;17.88;;
59147;SDS011;44930;52.878;6.168;2022-08-19T06:08:30;26.77;;;19.25;;
59147;SDS011;44930;52.878;6.168;2022-08-19T06:10:56;23.08;;;17.88;;
59147;SDS011;44930;52.878;6.168;2022-08-19T06:13:22;25.52;;;19.65;;
59147;SDS011;44930;52.878;6.168;2022-08-19T06:15:49;27.40;;;20.58;;
59147;SDS011;44930;52.878;6.168;2022-08-19T06:18:15;25.80;;;19.85;;
59147;SDS011;44930;52.878;6.168;2022-08-19T06:20:41;22.45;;;18.05;;
59147;SDS011;44930;52.878;6.168;2022-08-19T06:23:07;27.10;;;18.08;;
59147;SDS011;44930;52.878;6.168;2022-08-19T06:25:33;22.13;;;17.88;;
59147;SDS011;44930;52.878;6.168;2022-08-19T06:27:59;21.40;;;17.33;;
59147;SDS011;44930;52.878;6.168;2022-08-19T06:30:25;25.52;;;18.85;;
59147;SDS011;44930;52.878;6.168;2022-08-19T06:32:51;24.20;;;18.63;;
59147;SDS011;44930;52.878;6.168;2022-08-19T06:35:16;23.45;;;18.75;;
59147;SDS011;44930;52.878;6.168;2022-08-19T06:37:42;24.17;;;17.80;;
59147;SDS011;44930;52.878;6.168;2022-08-19T06:40:07;23.17;;;17.75;;
59147;SDS011;44930;52.878;6.168;2022-08-19T06:42:36;25.02;;;19.10;;
59147;SDS011;44930;52.878;6.168;2022-08-19T06:45:03;24.58;;;18.90;;
59147;SDS011;44930;52.878;6.168;2022-08-19T06:47:30;28.80;;;20.13;;
59147;SDS011;44930;52.878;6.168;2022-08-19T06:49:57;20.90;;;17.50;;
59147;SDS011;44930;52.878;6.168;2022-08-19T06:52:27;21.95;;;17.52;;
59147;SDS011;44930;52.878;6.168;2022-08-19T06:55:00;22.45;;;18.25;;
59147;SDS011;44930;52.878;6.168;2022-08-19T06:57:26;24.00;;;17.05;;
59147;SDS011;44930;52.878;6.168;2022-08-19T06:59:53;22.30;;;18.38;;
59147;SDS011;44930;52.878;6.168;2022-08-19T07:02:20;23.95;;;19.38;;
59147;SDS011;44930;52.878;6.168;2022-08-19T07:04:47;19.65;;;16.92;;
59147;SDS011;44930;52.878;6.168;2022-08-19T07:07:13;22.65;;;18.17;;
59147;SDS011;44930;52.878;6.168;2022-08-19T07:09:41;21.98;;;17.88;;
59147;SDS011;44930;52.878;6.168;2022-08-19T07:12:09;22.48;;;18.95;;
59147;SDS011;44930;52.878;6.168;2022-08-19T07:14:37;23.90;;;19.40;;
59147;SDS011;44930;52.878;6.168;2022-08-19T07:17:04;22.85;;;18.45;;
59147;SDS011;44930;52.878;6.168;2022-08-19T07:19:32;20.52;;;18.35;;
59147;SDS011;44930;52.878;6.168;2022-08-19T07:21:58;25.40;;;17.80;;
59147;SDS011;44930;52.878;6.168;2022-08-19T07:24:27;19.85;;;16.35;;
59147;SDS011;44930;52.878;6.168;2022-08-19T07:26:54;22.55;;;18.38;;
59147;SDS011;44930;52.878;6.168;2022-08-19T07:29:22;20.42;;;18.20;;
59147;SDS011;44930;52.878;6.168;2022-08-19T07:31:49;24.02;;;18.65;;
59147;SDS011;44930;52.878;6.168;2022-08-19T07:34:16;20.90;;;17.92;;
59147;SDS011;44930;52.878;6.168;2022-08-19T07:36:42;23.20;;;18.38;;
59147;SDS011;44930;52.878;6.168;2022-08-19T07:39:11;19.45;;;17.02;;
59147;SDS011;44930;52.878;6.168;2022-08-19T07:41:39;19.70;;;15.60;;
59147;SDS011;44930;52.878;6.168;2022-08-19T07:44:05;21.27;;;16.40;;
59147;SDS011;44930;52.878;6.168;2022-08-19T07:46:32;19.30;;;16.60;;
59147;SDS011;44930;52.878;6.168;2022-08-19T07:48:59;22.23;;;17.33;;
59147;SDS011;44930;52.878;6.168;2022-08-19T07:51:26;20.90;;;16.75;;
59147;SDS011;44930;52.878;6.168;2022-08-19T07:53:52;19.90;;;17.00;;
59147;SDS011;44930;52.878;6.168;2022-08-19T07:56:18;20.98;;;17.88;;
59147;SDS011;44930;52.878;6.168;2022-08-19T07:58:45;20.95;;;17.65;;
59147;SDS011;44930;52.878;6.168;2022-08-19T08:01:18;25.08;;;18.40;;
59147;SDS011;44930;52.878;6.168;2022-08-19T08:03:45;18.58;;;15.43;;
59147;SDS011;44930;52.878;6.168;2022-08-19T08:06:29;22.88;;;18.73;;
59147;SDS011;44930;52.878;6.168;2022-08-19T08:09:14;20.92;;;18.25;;
59147;SDS011;44930;52.878;6.168;2022-08-19T08:11:49;23.48;;;19.80;;
59147;SDS011;44930;52.878;6.168;2022-08-19T08:14:28;19.70;;;17.30;;
59147;SDS011;44930;52.878;6.168;2022-08-19T08:16:56;21.52;;;19.00;;
59147;SDS011;44930;52.878;6.168;2022-08-19T08:19:23;20.55;;;18.45;;
59147;SDS011;44930;52.878;6.168;2022-08-19T08:21:50;23.02;;;18.98;;
59147;SDS011;44930;52.878;6.168;2022-08-19T08:24:16;22.13;;;19.20;;
59147;SDS011;44930;52.878;6.168;2022-08-19T08:26:43;21.73;;;18.15;;
59147;SDS011;44930;52.878;6.168;2022-08-19T08:29:10;18.90;;;16.85;;
59147;SDS011;44930;52.878;6.168;2022-08-19T08:31:38;20.67;;;17.75;;
59147;SDS011;44930;52.878;6.168;2022-08-19T08:34:08;20.60;;;17.90;;
59147;SDS011;44930;52.878;6.168;2022-08-19T08:36:37;18.88;;;16.88;;
59147;SDS011;44930;52.878;6.168;2022-08-19T08:39:11;17.63;;;15.88;;
59147;SDS011;44930;52.878;6.168;2022-08-19T08:44:32;21.00;;;18.73;;
59147;SDS011;44930;52.878;6.168;2022-08-19T08:47:05;20.60;;;18.45;;
59147;SDS011;44930;52.878;6.168;2022-08-19T08:49:45;28.73;;;19.55;;
59147;SDS011;44930;52.878;6.168;2022-08-19T08:52:31;22.48;;;19.92;;
59147;SDS011;44930;52.878;6.168;2022-08-19T08:55:03;23.67;;;19.90;;
59147;SDS011;44930;52.878;6.168;2022-08-19T08:57:35;24.48;;;20.85;;
59147;SDS011;44930;52.878;6.168;2022-08-19T09:00:06;22.88;;;19.15;;
59147;SDS011;44930;52.878;6.168;2022-08-19T09:02:35;24.10;;;21.52;;
59147;SDS011;44930;52.878;6.168;2022-08-19T09:05:01;22.60;;;19.75;;
59147;SDS011;44930;52.878;6.168;2022-08-19T09:10:32;25.33;;;21.73;;
59147;SDS011;44930;52.878;6.168;2022-08-19T09:13:14;25.95;;;22.45;;
59147;SDS011;44930;52.878;6.168;2022-08-19T09:15:50;26.60;;;21.52;;
59147;SDS011;44930;52.878;6.168;2022-08-19T09:18:22;25.02;;;22.30;;
59147;SDS011;44930;52.878;6.168;2022-08-19T09:20:47;26.52;;;23.17;;
59147;SDS011;44930;52.878;6.168;2022-08-19T09:23:13;25.35;;;21.70;;
59147;SDS011;44930;52.878;6.168;2022-08-19T09:25:40;26.60;;;23.38;;
59147;SDS011;44930;52.878;6.168;2022-08-19T09:28:06;25.98;;;23.27;;
59147;SDS011;44930;52.878;6.168;2022-08-19T09:30:33;32.50;;;27.00;;
59147;SDS011;44930;52.878;6.168;2022-08-19T09:33:04;26.48;;;22.90;;
59147;SDS011;44930;52.878;6.168;2022-08-19T09:35:30;24.80;;;21.77;;
59147;SDS011;44930;52.878;6.168;2022-08-19T09:37:56;26.63;;;23.88;;
59147;SDS011;44930;52.878;6.168;2022-08-19T09:40:22;26.40;;;23.70;;
59147;SDS011;44930;52.878;6.168;2022-08-19T09:42:48;28.20;;;24.98;;
59147;SDS011;44930;52.878;6.168;2022-08-19T09:45:14;25.77;;;22.45;;
59147;SDS011;44930;52.878;6.168;2022-08-19T09:47:41;33.75;;;23.73;;
59147;SDS011;44930;52.878;6.168;2022-08-19T09:50:08;24.13;;;21.45;;
59147;SDS011;44930;52.878;6.168;2022-08-19T09:52:35;25.60;;;21.42;;
59147;SDS011;44930;52.878;6.168;2022-08-19T09:55:05;26.73;;;22.10;;
59147;SDS011;44930;52.878;6.168;2022-08-19T09:57:32;23.80;;;20.02;;
59147;SDS011;44930;52.878;6.168;2022-08-19T09:59:58;24.33;;;20.27;;
59147;SDS011;44930;52.878;6.168;2022-08-19T10:02:24;21.70;;;19.45;;
59147;SDS011;44930;52.878;6.168;2022-08-19T10:04:50;19.48;;;17.17;;
59147;SDS011;44930;52.878;6.168;2022-08-19T10:07:35;18.77;;;16.77;;
59147;SDS011;44930;52.878;6.168;2022-08-19T10:10:01;17.70;;;15.45;;
59147;SDS011;44930;52.878;6.168;2022-08-19T10:12:28;17.50;;;15.73;;
59147;SDS011;44930;52.878;6.168;2022-08-19T10:14:54;19.23;;;17.10;;
59147;SDS011;44930;52.878;6.168;2022-08-19T10:17:20;20.25;;;14.85;;
59147;SDS011;44930;52.878;6.168;2022-08-19T10:19:46;17.77;;;14.35;;
59147;SDS011;44930;52.878;6.168;2022-08-19T10:22:12;17.25;;;12.15;;
59147;SDS011;44930;52.878;6.168;2022-08-19T10:24:38;14.80;;;12.20;;
59147;SDS011;44930;52.878;6.168;2022-08-19T10:27:04;19.33;;;12.50;;
59147;SDS011;44930;52.878;6.168;2022-08-19T10:29:30;18.08;;;14.07;;
59147;SDS011;44930;52.878;6.168;2022-08-19T10:32:00;14.40;;;12.55;;
59147;SDS011;44930;52.878;6.168;2022-08-19T10:34:26;14.25;;;11.23;;
59147;SDS011;44930;52.878;6.168;2022-08-19T10:36:53;16.85;;;13.18;;
59147;SDS011;44930;52.878;6.168;2022-08-19T10:39:19;14.57;;;11.85;;
59147;SDS011;44930;52.878;6.168;2022-08-19T10:41:44;15.43;;;11.43;;
59147;SDS011;44930;52.878;6.168;2022-08-19T10:44:11;12.18;;;9.43;;
59147;SDS011;44930;52.878;6.168;2022-08-19T10:46:38;14.13;;;9.30;;
59147;SDS011;44930;52.878;6.168;2022-08-19T10:49:07;11.90;;;8.40;;
59147;SDS011;44930;52.878;6.168;2022-08-19T10:51:34;13.45;;;9.73;;
59147;SDS011;44930;52.878;6.168;2022-08-19T10:54:18;15.30;;;11.38;;
59147;SDS011;44930;52.878;6.168;2022-08-19T10:56:45;17.10;;;14.35;;
59147;SDS011;44930;52.878;6.168;2022-08-19T10:59:20;20.15;;;15.60;;
59147;SDS011;44930;52.878;6.168;2022-08-19T11:01:48;21.92;;;16.70;;
59147;SDS011;44930;52.878;6.168;2022-08-19T11:04:15;17.55;;;13.98;;
59147;SDS011;44930;52.878;6.168;2022-08-19T11:06:43;19.63;;;12.88;;
59147;SDS011;44930;52.878;6.168;2022-08-19T11:09:12;13.20;;;10.95;;
59147;SDS011;44930;52.878;6.168;2022-08-19T11:11:40;20.23;;;14.88;;
59147;SDS011;44930;52.878;6.168;2022-08-19T11:14:07;21.92;;;16.73;;
59147;SDS011;44930;52.878;6.168;2022-08-19T11:16:34;17.77;;;14.90;;
59147;SDS011;44930;52.878;6.168;2022-08-19T11:18:59;16.38;;;11.73;;
59147;SDS011;44930;52.878;6.168;2022-08-19T11:21:27;19.17;;;15.48;;
59147;SDS011;44930;52.878;6.168;2022-08-19T11:23:57;19.70;;;15.02;;
59147;SDS011;44930;52.878;6.168;2022-08-19T11:26:25;19.27;;;16.50;;
59147;SDS011;44930;52.878;6.168;2022-08-19T11:28:51;18.50;;;16.17;;
59147;SDS011;44930;52.878;6.168;2022-08-19T11:31:20;18.75;;;14.05;;
59147;SDS011;44930;52.878;6.168;2022-08-19T11:33:50;17.42;;;13.48;;
59147;SDS011;44930;52.878;6.168;2022-08-19T11:36:17;18.92;;;15.75;;
59147;SDS011;44930;52.878;6.168;2022-08-19T11:38:44;17.48;;;14.38;;
59147;SDS011;44930;52.878;6.168;2022-08-19T11:41:10;20.27;;;17.70;;
59147;SDS011;44930;52.878;6.168;2022-08-19T11:43:36;20.77;;;16.85;;
59147;SDS011;44930;52.878;6.168;2022-08-19T11:46:05;19.23;;;17.23;;
59147;SDS011;44930;52.878;6.168;2022-08-19T11:48:32;18.55;;;13.70;;
59147;SDS011;44930;52.878;6.168;2022-08-19T11:50:59;18.70;;;15.65;;
59147;SDS011;44930;52.878;6.168;2022-08-19T11:53:30;22.40;;;16.55;;
59147;SDS011;44930;52.878;6.168;2022-08-19T11:55:55;21.25;;;16.73;;
59147;SDS011;44930;52.878;6.168;2022-08-19T11:58:21;20.52;;;17.27;;
59147;SDS011;44930;52.878;6.168;2022-08-19T12:00:47;19.95;;;16.75;;
59147;SDS011;44930;52.878;6.168;2022-08-19T12:03:13;20.38;;;15.60;;
59147;SDS011;44930;52.878;6.168;2022-08-19T12:05:40;22.90;;;14.23;;
59147;SDS011;44930;52.878;6.168;2022-08-19T12:08:06;22.67;;;15.48;;
59147;SDS011;44930;52.878;6.168;2022-08-19T12:10:32;22.25;;;17.45;;
59147;SDS011;44930;52.878;6.168;2022-08-19T12:12:58;23.48;;;19.65;;
59147;SDS011;44930;52.878;6.168;2022-08-19T12:15:24;20.23;;;17.67;;
59147;SDS011;44930;52.878;6.168;2022-08-19T12:17:52;20.40;;;17.98;;
59147;SDS011;44930;52.878;6.168;2022-08-19T12:20:20;24.20;;;18.25;;
59147;SDS011;44930;52.878;6.168;2022-08-19T12:22:45;19.33;;;15.70;;
59147;SDS011;44930;52.878;6.168;2022-08-19T12:25:11;21.60;;;17.08;;
59147;SDS011;44930;52.878;6.168;2022-08-19T12:27:37;27.45;;;17.55;;
59147;SDS011;44930;52.878;6.168;2022-08-19T12:30:04;22.60;;;19.75;;
59147;SDS011;44930;52.878;6.168;2022-08-19T12:32:31;27.40;;;20.83;;
59147;SDS011;44930;52.878;6.168;2022-08-19T12:34:57;25.10;;;21.20;;
59147;SDS011;44930;52.878;6.168;2022-08-19T12:37:22;23.33;;;19.88;;
59147;SDS011;44930;52.878;6.168;2022-08-19T12:39:48;24.15;;;20.88;;
59147;SDS011;44930;52.878;6.168;2022-08-19T12:42:13;25.40;;;20.80;;
59147;SDS011;44930;52.878;6.168;2022-08-19T12:44:40;24.58;;;22.00;;
59147;SDS011;44930;52.878;6.168;2022-08-19T12:47:08;20.92;;;18.35;;
59147;SDS011;44930;52.878;6.168;2022-08-19T12:49:37;23.65;;;19.42;;
59147;SDS011;44930;52.878;6.168;2022-08-19T12:52:04;20.67;;;17.52;;
59147;SDS011;44930;52.878;6.168;2022-08-19T12:54:32;24.27;;;17.70;;
59147;SDS011;44930;52.878;6.168;2022-08-19T12:56:58;25.35;;;17.80;;
59147;SDS011;44930;52.878;6.168;2022-08-19T12:59:24;20.25;;;17.27;;
59147;SDS011;44930;52.878;6.168;2022-08-19T13:01:50;20.98;;;17.40;;
59147;SDS011;44930;52.878;6.168;2022-08-19T13:04:16;27.83;;;20.67;;
59147;SDS011;44930;52.878;6.168;2022-08-19T13:06:42;22.65;;;19.33;;
59147;SDS011;44930;52.878;6.168;2022-08-19T13:09:08;24.75;;;18.88;;
59147;SDS011;44930;52.878;6.168;2022-08-19T13:11:35;23.13;;;17.20;;
59147;SDS011;44930;52.878;6.168;2022-08-19T13:14:02;21.20;;;18.20;;
59147;SDS011;44930;52.878;6.168;2022-08-19T13:16:29;25.23;;;20.17;;
59147;SDS011;44930;52.878;6.168;2022-08-19T13:18:55;21.10;;;17.08;;
59147;SDS011;44930;52.878;6.168;2022-08-19T13:21:23;24.30;;;20.30;;
59147;SDS011;44930;52.878;6.168;2022-08-19T13:23:51;18.55;;;16.60;;
59147;SDS011;44930;52.878;6.168;2022-08-19T13:26:17;26.02;;;21.40;;
59147;SDS011;44930;52.878;6.168;2022-08-19T13:28:43;25.23;;;20.20;;
59147;SDS011;44930;52.878;6.168;2022-08-19T13:31:31;24.58;;;20.52;;
59147;SDS011;44930;52.878;6.168;2022-08-19T13:34:18;24.00;;;21.20;;
59147;SDS011;44930;52.878;6.168;2022-08-19T13:36:51;26.00;;;20.38;;
59147;SDS011;44930;52.878;6.168;2022-08-19T13:39:17;23.85;;;21.15;;
59147;SDS011;44930;52.878;6.168;2022-08-19T13:41:44;24.30;;;21.17;;
59147;SDS011;44930;52.878;6.168;2022-08-19T13:44:13;26.20;;;20.10;;
59147;SDS011;44930;52.878;6.168;2022-08-19T13:46:40;26.60;;;20.08;;
59147;SDS011;44930;52.878;6.168;2022-08-19T13:49:09;29.85;;;23.13;;
59147;SDS011;44930;52.878;6.168;2022-08-19T13:51:35;28.08;;;22.73;;
59147;SDS011;44930;52.878;6.168;2022-08-19T13:54:04;26.02;;;20.10;;
59147;SDS011;44930;52.878;6.168;2022-08-19T13:56:30;26.60;;;20.80;;
59147;SDS011;44930;52.878;6.168;2022-08-19T13:58:56;25.65;;;17.15;;
59147;SDS011;44930;52.878;6.168;2022-08-19T14:01:23;23.98;;;19.08;;
59147;SDS011;44930;52.878;6.168;2022-08-19T14:03:49;25.58;;;18.08;;
59147;SDS011;44930;52.878;6.168;2022-08-19T14:06:14;22.05;;;17.95;;
59147;SDS011;44930;52.878;6.168;2022-08-19T14:08:41;22.60;;;17.67;;
59147;SDS011;44930;52.878;6.168;2022-08-19T14:11:08;21.67;;;17.73;;
59147;SDS011;44930;52.878;6.168;2022-08-19T14:13:34;24.15;;;18.42;;
59147;SDS011;44930;52.878;6.168;2022-08-19T14:15:59;22.05;;;16.92;;
59147;SDS011;44930;52.878;6.168;2022-08-19T14:18:25;22.67;;;15.20;;
59147;SDS011;44930;52.878;6.168;2022-08-19T14:20:51;20.33;;;15.20;;
59147;SDS011;44930;52.878;6.168;2022-08-19T14:23:17;17.98;;;12.85;;
59147;SDS011;44930;52.878;6.168;2022-08-19T14:25:43;17.40;;;11.95;;
59147;SDS011;44930;52.878;6.168;2022-08-19T14:28:09;17.23;;;11.30;;
59147;SDS011;44930;52.878;6.168;2022-08-19T14:30:35;15.65;;;11.13;;
59147;SDS011;44930;52.878;6.168;2022-08-19T14:33:03;14.95;;;10.50;;
59147;SDS011;44930;52.878;6.168;2022-08-19T14:35:30;14.02;;;12.38;;
59147;SDS011;44930;52.878;6.168;2022-08-19T14:37:59;15.30;;;11.55;;
59147;SDS011;44930;52.878;6.168;2022-08-19T14:40:26;16.08;;;10.85;;